createdAt,value
2023-03-26T13:31:56.579Z,0.40
2023-03-26T13:34:36.129Z,0.68
2023-03-26T13:37:22.886Z,0.63
2023-03-26T13:39:54.956Z,0.60
2023-03-26T13:42:40.986Z,0.47
2023-03-26T13:45:31.810Z,0.65
2023-03-26T13:47:59.696Z,0.55
2023-03-26T13:50:30.378Z,0.82
2023-03-26T13:53:25.225Z,0.60
2023-03-26T13:55:59.654Z,0.57
2023-03-26T13:58:47.267Z,0.70
2023-03-26T14:01:19.322Z,0.60
2023-03-26T14:04:05.674Z,0.80
2023-03-26T14:06:46.512Z,0.75
2023-03-26T14:09:24.983Z,0.75
2023-03-26T14:11:57.908Z,0.50
2023-03-26T14:14:49.728Z,0.80
2023-03-26T14:17:39.294Z,1.02
2023-03-26T14:20:17.900Z,0.88
2023-03-26T14:22:56.440Z,0.68
2023-03-26T14:25:44.997Z,0.60
2023-03-26T14:28:42.442Z,0.70
2023-03-26T14:31:47.748Z,1.13
2023-03-26T14:34:33.053Z,1.20
2023-03-26T14:37:33.537Z,1.10
2023-03-26T14:40:18.121Z,1.05
2023-03-26T14:42:56.409Z,0.80
2023-03-26T14:45:44.794Z,0.80
2023-03-26T14:48:33.486Z,0.70
2023-03-26T14:51:33.855Z,1.00
2023-03-26T14:54:07.061Z,0.50
2023-03-26T14:56:49.301Z,0.70
2023-03-26T14:59:27.915Z,1.15
2023-03-26T15:02:11.390Z,0.90
2023-03-26T15:05:01.321Z,1.13
2023-03-26T15:08:04.608Z,0.93
2023-03-26T15:11:14.475Z,0.85
2023-03-26T15:13:59.937Z,0.75
2023-03-26T15:16:43.737Z,0.90
2023-03-26T15:19:45.440Z,1.02
2023-03-26T15:22:49.409Z,1.02
2023-03-26T15:25:38.539Z,1.20
2023-03-26T15:28:39.750Z,0.82
2023-03-26T15:31:18.592Z,1.00
2023-03-26T15:34:06.567Z,1.20
2023-03-26T15:37:00.282Z,1.02
2023-03-26T15:40:12.014Z,1.00
2023-03-26T15:42:45.477Z,0.80
2023-03-26T15:45:32.462Z,0.90
2023-03-26T15:48:11.892Z,0.40
2023-03-26T15:50:59.498Z,0.35
2023-03-26T15:53:47.997Z,0.35
2023-03-26T15:56:20.052Z,0.25
2023-03-26T15:59:00.516Z,0.38
2023-03-26T16:01:48.251Z,0.47
2023-03-26T16:04:19.979Z,0.20
2023-03-26T16:06:58.941Z,0.40
2023-03-26T16:09:40.422Z,0.30
2023-03-26T16:12:12.738Z,0.70
2023-03-26T16:14:48.112Z,0.45
2023-03-26T16:17:23.183Z,1.00
2023-03-26T16:20:19.600Z,0.60
2023-03-26T16:25:35.411Z,0.60
2023-03-26T16:28:32.538Z,0.50
2023-03-26T16:31:10.653Z,1.23
2023-03-26T16:34:18.835Z,1.10
2023-03-26T16:36:49.727Z,0.60
2023-03-26T16:39:24.481Z,1.38
2023-03-26T16:42:06.232Z,0.45
2023-03-26T16:44:37.928Z,0.65
2023-03-26T16:47:17.113Z,0.63
2023-03-26T16:50:28.946Z,0.45
2023-03-26T16:53:13.332Z,0.70
2023-03-26T16:55:46.741Z,0.60
2023-03-26T16:58:27.892Z,0.80
2023-03-26T17:01:07.544Z,0.80
2023-03-26T17:03:44.974Z,1.10
2023-03-26T17:06:26.684Z,0.80
2023-03-26T17:08:59.179Z,0.90
2023-03-26T17:11:54.807Z,1.13
2023-03-26T17:14:33.336Z,1.50
2023-03-26T17:17:02.627Z,1.20
2023-03-26T17:19:38.684Z,1.70
2023-03-26T17:22:26.613Z,1.10
2023-03-26T17:25:25.804Z,1.30
2023-03-26T17:28:07.407Z,1.20
2023-03-26T17:31:16.176Z,1.20
2023-03-26T17:33:43.002Z,1.10
2023-03-26T17:36:11.945Z,1.10
2023-03-26T17:38:45.511Z,1.42
2023-03-26T17:41:14.789Z,1.25
2023-03-26T17:43:52.906Z,1.30
2023-03-26T17:46:27.069Z,2.22
2023-03-26T17:49:23.324Z,2.33
2023-03-26T17:52:12.029Z,1.90
2023-03-26T17:54:44.320Z,1.20
2023-03-26T17:57:23.663Z,0.90
2023-03-26T17:59:56.110Z,0.90
2023-03-26T18:02:33.109Z,0.98
2023-03-26T18:05:01.506Z,1.10
2023-03-26T18:07:45.950Z,0.95
2023-03-26T18:10:43.278Z,1.17
2023-03-26T18:13:37.534Z,1.08
2023-03-26T18:16:24.735Z,1.00
2023-03-26T18:18:57.389Z,0.93
2023-03-26T18:21:32.493Z,0.47
2023-03-26T18:24:01.005Z,0.70
2023-03-26T18:26:39.299Z,0.82
2023-03-26T18:29:16.715Z,0.90
2023-03-26T18:31:43.901Z,0.90
2023-03-26T18:34:18.673Z,1.08
2023-03-26T18:36:47.178Z,0.70
2023-03-26T18:39:13.817Z,0.50
2023-03-26T18:41:42.175Z,0.73
2023-03-26T18:44:15.440Z,0.80
2023-03-26T18:46:43.105Z,0.70
2023-03-26T18:49:14.351Z,0.70
2023-03-26T18:51:53.987Z,0.70
2023-03-26T18:54:23.739Z,0.70
2023-03-26T18:56:51.967Z,0.93
2023-03-26T18:59:31.710Z,0.80
2023-03-26T19:02:13.694Z,0.70
2023-03-26T19:04:46.161Z,0.88
2023-03-26T19:07:16.098Z,0.60
2023-03-26T19:09:44.102Z,0.63
2023-03-26T19:12:32.989Z,0.98
2023-03-26T19:15:16.688Z,0.93
2023-03-26T19:17:46.444Z,0.95
2023-03-26T19:20:22.774Z,1.00
2023-03-26T19:22:50.742Z,1.15
2023-03-26T19:25:28.559Z,1.10
2023-03-26T19:27:55.457Z,1.15
2023-03-26T19:30:39.095Z,1.00
2023-03-26T19:33:16.501Z,1.30
2023-03-26T19:35:45.372Z,1.15
2023-03-26T19:38:26.993Z,0.82
2023-03-26T19:40:56.924Z,1.27
2023-03-26T19:43:25.529Z,1.27
2023-03-26T19:46:00.210Z,0.98
2023-03-26T19:48:45.914Z,0.85
2023-03-26T19:51:34.579Z,0.52
2023-03-26T19:54:06.085Z,0.52
2023-03-26T19:56:33.617Z,0.70
2023-03-26T19:59:00.237Z,0.68
2023-03-26T20:01:29.163Z,0.73
2023-03-26T20:03:58.729Z,0.50
2023-03-26T20:06:41.804Z,0.68
2023-03-26T20:09:10.782Z,0.65
2023-03-26T20:11:39.469Z,0.57
2023-03-26T20:14:15.206Z,0.70
2023-03-26T20:16:44.481Z,0.70
2023-03-26T20:19:13.758Z,0.40
2023-03-26T20:21:41.524Z,0.77
2023-03-26T20:24:14.881Z,0.65
2023-03-26T20:26:42.220Z,0.50
2023-03-26T20:29:08.660Z,0.60
2023-03-26T20:31:35.092Z,0.50
2023-03-26T20:34:01.861Z,0.50
2023-03-26T20:36:34.058Z,0.70
2023-03-26T20:39:05.547Z,0.60
2023-03-26T20:41:32.568Z,0.68
2023-03-26T20:43:58.880Z,0.80
2023-03-26T20:46:31.120Z,0.80
2023-03-26T20:48:59.283Z,0.88
2023-03-26T20:51:27.872Z,0.80
2023-03-26T20:53:54.425Z,0.70
2023-03-26T20:56:20.812Z,0.80
2023-03-26T20:59:03.689Z,0.80
2023-03-26T21:01:37.632Z,1.02
2023-03-26T21:04:04.399Z,1.10
2023-03-26T21:06:30.983Z,1.25
2023-03-26T21:08:57.642Z,1.00
2023-03-26T21:11:37.709Z,0.93
2023-03-26T21:14:15.026Z,1.00
2023-03-26T21:16:42.059Z,1.15
2023-03-26T21:19:10.197Z,0.98
2023-03-26T21:21:43.523Z,1.10
2023-03-26T21:24:32.906Z,0.77
2023-03-26T21:27:08.446Z,0.80
2023-03-26T21:32:01.967Z,1.13
2023-03-26T21:34:29.058Z,0.82
2023-03-26T21:36:55.746Z,1.23
2023-03-26T21:39:22.324Z,0.90
2023-03-26T21:42:05.248Z,1.05
2023-03-26T21:44:33.028Z,0.93
2023-03-26T21:46:59.753Z,0.68
2023-03-26T21:49:26.587Z,0.90
2023-03-26T21:51:53.241Z,0.68
2023-03-26T21:54:27.250Z,0.50
2023-03-26T21:57:21.662Z,0.77
2023-03-26T22:00:16.041Z,0.80
2023-03-26T22:02:51.615Z,0.70
2023-03-26T22:07:46.399Z,0.80
2023-03-26T22:10:12.776Z,0.90
2023-03-26T22:12:39.513Z,0.90
2023-03-26T22:15:06.844Z,1.13
2023-03-26T22:17:33.267Z,1.20
2023-03-26T22:20:01.212Z,1.10
2023-03-26T22:22:28.272Z,1.10
2023-03-26T22:24:54.588Z,0.80
2023-03-26T22:27:20.956Z,0.98
2023-03-26T22:29:47.408Z,0.98
2023-03-26T22:32:13.802Z,1.10
2023-03-26T22:34:41.342Z,1.10
2023-03-26T22:37:07.656Z,0.90
2023-03-26T22:39:33.987Z,1.10
2023-03-26T22:42:02.439Z,0.82
2023-03-26T22:44:28.748Z,0.95
2023-03-26T22:46:56.834Z,0.95
2023-03-26T22:49:26.063Z,1.20
2023-03-26T22:51:52.825Z,0.88
2023-03-26T22:54:19.197Z,0.90
2023-03-26T22:56:45.728Z,0.80
2023-03-26T22:59:13.110Z,0.90
2023-03-26T23:01:39.670Z,1.20
2023-03-26T23:04:06.081Z,1.10
2023-03-26T23:06:32.551Z,0.80
2023-03-26T23:08:58.931Z,1.35
2023-03-26T23:11:25.332Z,1.20
2023-03-26T23:13:51.932Z,1.05
2023-03-26T23:16:19.772Z,1.33
2023-03-26T23:18:46.482Z,1.10
2023-03-26T23:21:22.379Z,1.40
2023-03-26T23:23:50.354Z,2.10
2023-03-26T23:26:16.996Z,2.15
2023-03-26T23:28:43.673Z,2.10
2023-03-26T23:31:12.034Z,2.45
2023-03-26T23:33:45.447Z,2.40
2023-03-26T23:36:18.105Z,2.70
2023-03-26T23:38:46.693Z,2.78
2023-03-26T23:41:17.538Z,2.75
2023-03-26T23:43:54.216Z,2.83
2023-03-26T23:46:30.619Z,2.80
2023-03-26T23:48:59.577Z,2.28
2023-03-26T23:51:26.070Z,2.13
2023-03-26T23:53:53.338Z,2.47
2023-03-26T23:56:20.042Z,2.30
2023-03-26T23:58:48.943Z,2.50
